Anthony, KS

10:08 AM CDT on April 28, 2017 (GMT -0500)
Anthony Medical Center | | Change Station

Elev 1355 ft 37.16 °N, 98.02 °W | Updated 3 minutes ago

Partly Cloudy
Partly Cloudy
62.5 °F
Feels Like 62.5 °F
N
5.0
Wind Variable Wind from WNW
Gusts 5.0 mph

Today
High -- | Low -- °F
--% Chance of Precip.
Yesterday
High -- | Low -- °F
Precip. -- in
Pressure 29.64 in
Visibility 10.0 miles
Clouds Clear
Dew Point 55 °F
Humidity 76%
Rainfall 0.00 in
Snow Depth Not available.
6:40 AM 8:19 PM
Waxing Crescent, 7% visible
METAR KAVK 281455Z AUTO 31011G16KT 10SM CLR 17/12 A2964 RMK AO2
Pressure 29.64 in
Visibility 10.0 miles
Clouds Clear
Dew Point 55 °F
Humidity 76%
Rainfall 0.00 in
Snow Depth Not available.
6:40 AM 8:19 PM
Waxing Crescent, 7% visible
METAR KAVK 281455Z AUTO 31011G16KT 10SM CLR 17/12 A2964 RMK AO2

Get Severe Weather Alerts

Thanks for signing up!

Be on the lookout for a verification email in your inbox.

You'll start receiving the daily forecast at 8 AM.

×

10-Day Weather Forecast

Almanac

Astronomy

Apr. 28, 2017 Rise Set
Actual Time
Civil Twilight
Nautical Twilight
Astronomical Twilight
Moon
Length of Visible Light
Length of Day
Tomorrow will be .
, % of the Moon is Illuminated

Today's Extremes

State Highs State Lows

Community

WunderPhotos

WunderBlog® & News

Nearby

Air Quality

  Air Quality AQ Index Pollutant
Not available.

Snow Depth

Station Depth Elevation

Earthquake Activity

City Distance Mag. Time & Date
Minimum magnitude displayed is 2.5.

Coastal Water Temperatures

Place Temperature

Stations

Nearby Weather Stations

Station Location Temp. Windchill Dew Point Humidity Wind Precip. Elev Updated Type
                   

Watches & Warnings

There are currently no watches in effect.